sensor_id;sensor_type;location;lat;lon;timestamp;temperature;humidity
28438;DHT22;15667;52.376;9.708;2023-07-13T00:01:19;18.80;99.90
28438;DHT22;15667;52.376;9.708;2023-07-13T00:03:45;18.70;99.90
28438;DHT22;15667;52.376;9.708;2023-07-13T00:06:11;18.50;99.90
28438;DHT22;15667;52.376;9.708;2023-07-13T00:08:36;19.00;99.90
28438;DHT22;15667;52.376;9.708;2023-07-13T00:11:03;18.80;99.90
28438;DHT22;15667;52.376;9.708;2023-07-13T00:13:30;18.80;99.90
28438;DHT22;15667;52.376;9.708;2023-07-13T00:15:57;18.70;99.90
28438;DHT22;15667;52.376;9.708;2023-07-13T00:18:23;18.70;99.90
28438;DHT22;15667;52.376;9.708;2023-07-13T00:20:49;18.70;99.90
28438;DHT22;15667;52.376;9.708;2023-07-13T00:23:14;18.80;99.90
28438;DHT22;15667;52.376;9.708;2023-07-13T00:25:40;18.70;99.90
28438;DHT22;15667;52.376;9.708;2023-07-13T00:28:06;18.70;99.90
28438;DHT22;15667;52.376;9.708;2023-07-13T00:30:31;18.80;99.90
28438;DHT22;15667;52.376;9.708;2023-07-13T00:32:57;18.70;99.90
28438;DHT22;15667;52.376;9.708;2023-07-13T00:35:23;18.70;99.90
28438;DHT22;15667;52.376;9.708;2023-07-13T00:37:49;18.70;99.90
28438;DHT22;15667;52.376;9.708;2023-07-13T00:40:16;18.80;99.90
28438;DHT22;15667;52.376;9.708;2023-07-13T00:42:42;18.70;99.90
28438;DHT22;15667;52.376;9.708;2023-07-13T00:47:43;18.80;99.90
28438;DHT22;15667;52.376;9.708;2023-07-13T00:50:11;18.60;99.90
28438;DHT22;15667;52.376;9.708;2023-07-13T00:52:40;18.70;99.90
28438;DHT22;15667;52.376;9.708;2023-07-13T00:55:07;18.70;99.90
28438;DHT22;15667;52.376;9.708;2023-07-13T00:57:35;18.40;99.90
28438;DHT22;15667;52.376;9.708;2023-07-13T01:00:03;18.60;99.90
28438;DHT22;15667;52.376;9.708;2023-07-13T01:02:38;18.50;99.90
28438;DHT22;15667;52.376;9.708;2023-07-13T01:05:10;18.10;99.90
28438;DHT22;15667;52.376;9.708;2023-07-13T01:07:36;18.30;99.90
28438;DHT22;15667;52.376;9.708;2023-07-13T01:10:02;18.30;99.90
28438;DHT22;15667;52.376;9.708;2023-07-13T01:12:28;18.30;99.90
28438;DHT22;15667;52.376;9.708;2023-07-13T01:14:58;18.10;99.90
28438;DHT22;15667;52.376;9.708;2023-07-13T01:17:24;18.30;99.90
28438;DHT22;15667;52.376;9.708;2023-07-13T01:19:49;18.20;99.90
28438;DHT22;15667;52.376;9.708;2023-07-13T01:22:17;18.20;99.90
28438;DHT22;15667;52.376;9.708;2023-07-13T01:24:45;18.30;99.90
28438;DHT22;15667;52.376;9.708;2023-07-13T01:27:14;18.10;99.90
28438;DHT22;15667;52.376;9.708;2023-07-13T01:29:42;18.80;99.90
28438;DHT22;15667;52.376;9.708;2023-07-13T01:32:09;18.10;99.90
28438;DHT22;15667;52.376;9.708;2023-07-13T01:34:35;18.20;99.90
28438;DHT22;15667;52.376;9.708;2023-07-13T01:37:03;17.90;99.90
28438;DHT22;15667;52.376;9.708;2023-07-13T01:39:28;18.00;99.90
28438;DHT22;15667;52.376;9.708;2023-07-13T01:41:54;18.00;99.90
28438;DHT22;15667;52.376;9.708;2023-07-13T01:44:20;17.80;99.90
28438;DHT22;15667;52.376;9.708;2023-07-13T01:46:45;17.90;99.90
28438;DHT22;15667;52.376;9.708;2023-07-13T01:49:11;17.70;99.90
28438;DHT22;15667;52.376;9.708;2023-07-13T01:51:37;17.90;99.90
28438;DHT22;15667;52.376;9.708;2023-07-13T01:54:02;17.70;99.90
28438;DHT22;15667;52.376;9.708;2023-07-13T01:56:28;17.70;99.90
28438;DHT22;15667;52.376;9.708;2023-07-13T01:58:53;17.70;99.90
28438;DHT22;15667;52.376;9.708;2023-07-13T02:03:45;17.70;99.90
28438;DHT22;15667;52.376;9.708;2023-07-13T02:06:12;17.50;99.90
28438;DHT22;15667;52.376;9.708;2023-07-13T02:08:37;17.60;99.90
28438;DHT22;15667;52.376;9.708;2023-07-13T02:11:03;17.70;99.90
28438;DHT22;15667;52.376;9.708;2023-07-13T02:13:29;17.60;99.90
28438;DHT22;15667;52.376;9.708;2023-07-13T02:15:55;17.60;99.90
28438;DHT22;15667;52.376;9.708;2023-07-13T02:18:20;17.60;99.90
28438;DHT22;15667;52.376;9.708;2023-07-13T02:20:46;17.60;99.90
28438;DHT22;15667;52.376;9.708;2023-07-13T02:23:11;17.50;99.90
28438;DHT22;15667;52.376;9.708;2023-07-13T02:25:37;17.50;99.90
28438;DHT22;15667;52.376;9.708;2023-07-13T02:28:03;17.40;99.90
28438;DHT22;15667;52.376;9.708;2023-07-13T02:30:30;17.40;99.90
28438;DHT22;15667;52.376;9.708;2023-07-13T02:32:56;17.40;99.90
28438;DHT22;15667;52.376;9.708;2023-07-13T02:35:22;17.40;99.90
28438;DHT22;15667;52.376;9.708;2023-07-13T02:37:48;17.40;99.90
28438;DHT22;15667;52.376;9.708;2023-07-13T02:40:14;17.40;99.90
28438;DHT22;15667;52.376;9.708;2023-07-13T02:42:40;17.30;99.90
28438;DHT22;15667;52.376;9.708;2023-07-13T02:45:07;17.70;99.90
28438;DHT22;15667;52.376;9.708;2023-07-13T02:47:33;17.40;99.90
28438;DHT22;15667;52.376;9.708;2023-07-13T02:49:59;17.30;99.90
28438;DHT22;15667;52.376;9.708;2023-07-13T02:52:25;17.30;99.90
28438;DHT22;15667;52.376;9.708;2023-07-13T02:54:51;17.40;99.90
28438;DHT22;15667;52.376;9.708;2023-07-13T02:57:16;17.20;99.90
28438;DHT22;15667;52.376;9.708;2023-07-13T02:59:42;17.50;99.90
28438;DHT22;15667;52.376;9.708;2023-07-13T03:02:08;17.40;99.90
28438;DHT22;15667;52.376;9.708;2023-07-13T03:04:38;17.40;99.90
28438;DHT22;15667;52.376;9.708;2023-07-13T03:07:06;16.40;99.90
28438;DHT22;15667;52.376;9.708;2023-07-13T03:09:34;17.20;99.90
28438;DHT22;15667;52.376;9.708;2023-07-13T03:12:00;17.20;99.90
28438;DHT22;15667;52.376;9.708;2023-07-13T03:14:26;17.50;99.90
28438;DHT22;15667;52.376;9.708;2023-07-13T03:16:52;17.20;99.90
28438;DHT22;15667;52.376;9.708;2023-07-13T03:19:18;17.30;99.90
28438;DHT22;15667;52.376;9.708;2023-07-13T03:21:44;16.90;99.90
28438;DHT22;15667;52.376;9.708;2023-07-13T03:26:36;17.30;99.90
28438;DHT22;15667;52.376;9.708;2023-07-13T03:31:29;17.30;99.90
28438;DHT22;15667;52.376;9.708;2023-07-13T03:33:56;17.20;99.90
28438;DHT22;15667;52.376;9.708;2023-07-13T03:36:26;17.20;99.90
28438;DHT22;15667;52.376;9.708;2023-07-13T03:38:55;17.20;99.90
28438;DHT22;15667;52.376;9.708;2023-07-13T03:41:22;17.20;99.90
28438;DHT22;15667;52.376;9.708;2023-07-13T03:43:48;17.00;99.90
28438;DHT22;15667;52.376;9.708;2023-07-13T03:46:14;16.90;99.90
28438;DHT22;15667;52.376;9.708;2023-07-13T03:48:44;17.10;99.90
28438;DHT22;15667;52.376;9.708;2023-07-13T03:51:11;17.20;99.90
28438;DHT22;15667;52.376;9.708;2023-07-13T03:53:39;17.00;99.90
28438;DHT22;15667;52.376;9.708;2023-07-13T03:56:05;17.10;99.90
28438;DHT22;15667;52.376;9.708;2023-07-13T03:58:36;17.20;99.90
28438;DHT22;15667;52.376;9.708;2023-07-13T04:01:03;17.10;99.90
28438;DHT22;15667;52.376;9.708;2023-07-13T04:03:30;17.20;99.90
28438;DHT22;15667;52.376;9.708;2023-07-13T04:05:59;17.20;99.90
28438;DHT22;15667;52.376;9.708;2023-07-13T04:08:30;17.30;99.90
28438;DHT22;15667;52.376;9.708;2023-07-13T04:10:57;17.30;99.90
28438;DHT22;15667;52.376;9.708;2023-07-13T04:13:23;18.10;99.90
28438;DHT22;15667;52.376;9.708;2023-07-13T04:15:49;17.40;99.90
28438;DHT22;15667;52.376;9.708;2023-07-13T04:18:15;17.40;99.90
28438;DHT22;15667;52.376;9.708;2023-07-13T04:20:41;17.40;99.90
28438;DHT22;15667;52.376;9.708;2023-07-13T04:25:33;17.40;99.90
28438;DHT22;15667;52.376;9.708;2023-07-13T04:27:58;17.40;99.90
28438;DHT22;15667;52.376;9.708;2023-07-13T04:30:24;17.60;99.90
28438;DHT22;15667;52.376;9.708;2023-07-13T04:32:51;17.50;99.90
28438;DHT22;15667;52.376;9.708;2023-07-13T04:35:21;17.40;99.90
28438;DHT22;15667;52.376;9.708;2023-07-13T04:37:48;17.40;99.90
28438;DHT22;15667;52.376;9.708;2023-07-13T04:40:17;17.40;99.90
28438;DHT22;15667;52.376;9.708;2023-07-13T04:42:44;17.40;99.90
28438;DHT22;15667;52.376;9.708;2023-07-13T04:45:11;17.30;99.90
28438;DHT22;15667;52.376;9.708;2023-07-13T04:47:36;17.30;99.90
28438;DHT22;15667;52.376;9.708;2023-07-13T04:50:03;17.30;99.90
28438;DHT22;15667;52.376;9.708;2023-07-13T04:52:28;17.20;99.90
28438;DHT22;15667;52.376;9.708;2023-07-13T04:54:54;17.20;99.90
28438;DHT22;15667;52.376;9.708;2023-07-13T04:57:20;17.50;99.90
28438;DHT22;15667;52.376;9.708;2023-07-13T04:59:45;17.30;99.90
28438;DHT22;15667;52.376;9.708;2023-07-13T05:02:11;17.40;99.90
28438;DHT22;15667;52.376;9.708;2023-07-13T05:04:37;17.30;99.90
28438;DHT22;15667;52.376;9.708;2023-07-13T05:07:05;17.40;99.90
28438;DHT22;15667;52.376;9.708;2023-07-13T05:09:31;17.40;99.90
28438;DHT22;15667;52.376;9.708;2023-07-13T05:11:57;17.50;99.90
28438;DHT22;15667;52.376;9.708;2023-07-13T05:14:22;17.50;99.90
28438;DHT22;15667;52.376;9.708;2023-07-13T05:16:48;17.60;99.90
28438;DHT22;15667;52.376;9.708;2023-07-13T05:19:14;17.60;99.90
28438;DHT22;15667;52.376;9.708;2023-07-13T05:21:39;17.70;99.90
28438;DHT22;15667;52.376;9.708;2023-07-13T05:24:06;17.80;99.90
28438;DHT22;15667;52.376;9.708;2023-07-13T05:26:32;18.40;99.90
28438;DHT22;15667;52.376;9.708;2023-07-13T05:28:58;17.90;99.90
28438;DHT22;15667;52.376;9.708;2023-07-13T05:31:23;17.90;99.90
28438;DHT22;15667;52.376;9.708;2023-07-13T05:33:49;18.00;99.90
28438;DHT22;15667;52.376;9.708;2023-07-13T05:36:15;17.90;99.90
28438;DHT22;15667;52.376;9.708;2023-07-13T05:38:40;18.10;99.90
28438;DHT22;15667;52.376;9.708;2023-07-13T05:41:06;17.90;99.90
28438;DHT22;15667;52.376;9.708;2023-07-13T05:43:32;18.00;99.90
28438;DHT22;15667;52.376;9.708;2023-07-13T05:45:58;18.10;99.90
28438;DHT22;15667;52.376;9.708;2023-07-13T05:48:24;18.00;99.90
28438;DHT22;15667;52.376;9.708;2023-07-13T05:50:50;18.10;99.90
28438;DHT22;15667;52.376;9.708;2023-07-13T05:53:16;18.30;99.90
28438;DHT22;15667;52.376;9.708;2023-07-13T05:55:46;18.20;99.90
28438;DHT22;15667;52.376;9.708;2023-07-13T05:58:18;18.10;99.90
28438;DHT22;15667;52.376;9.708;2023-07-13T06:00:45;18.20;99.90
28438;DHT22;15667;52.376;9.708;2023-07-13T06:03:11;18.20;99.90
28438;DHT22;15667;52.376;9.708;2023-07-13T06:05:38;18.30;99.90
28438;DHT22;15667;52.376;9.708;2023-07-13T06:08:04;17.00;99.90
28438;DHT22;15667;52.376;9.708;2023-07-13T06:10:33;18.50;99.90
28438;DHT22;15667;52.376;9.708;2023-07-13T06:12:59;18.50;99.90
28438;DHT22;15667;52.376;9.708;2023-07-13T06:15:24;18.50;99.90
28438;DHT22;15667;52.376;9.708;2023-07-13T06:17:50;18.50;99.90
28438;DHT22;15667;52.376;9.708;2023-07-13T06:20:15;19.90;99.90
28438;DHT22;15667;52.376;9.708;2023-07-13T06:22:41;18.70;99.90
28438;DHT22;15667;52.376;9.708;2023-07-13T06:25:07;18.50;99.90
28438;DHT22;15667;52.376;9.708;2023-07-13T06:27:33;18.60;99.90
28438;DHT22;15667;52.376;9.708;2023-07-13T06:29:59;18.70;99.90
28438;DHT22;15667;52.376;9.708;2023-07-13T06:32:24;19.20;99.90
28438;DHT22;15667;52.376;9.708;2023-07-13T06:34:50;19.10;99.90
28438;DHT22;15667;52.376;9.708;2023-07-13T06:37:17;19.20;99.90
28438;DHT22;15667;52.376;9.708;2023-07-13T06:39:43;19.30;99.90
28438;DHT22;15667;52.376;9.708;2023-07-13T06:42:09;19.50;99.90
28438;DHT22;15667;52.376;9.708;2023-07-13T06:44:36;19.50;99.90
28438;DHT22;15667;52.376;9.708;2023-07-13T06:47:02;19.50;99.90
28438;DHT22;15667;52.376;9.708;2023-07-13T06:49:28;19.10;99.90
28438;DHT22;15667;52.376;9.708;2023-07-13T06:51:53;19.10;99.90
28438;DHT22;15667;52.376;9.708;2023-07-13T06:54:19;19.00;99.90
28438;DHT22;15667;52.376;9.708;2023-07-13T06:56:45;19.30;99.90
28438;DHT22;15667;52.376;9.708;2023-07-13T06:59:13;19.20;99.90
28438;DHT22;15667;52.376;9.708;2023-07-13T07:01:39;19.30;99.90
28438;DHT22;15667;52.376;9.708;2023-07-13T07:04:04;19.90;99.90
28438;DHT22;15667;52.376;9.708;2023-07-13T07:06:30;18.40;99.90
28438;DHT22;15667;52.376;9.708;2023-07-13T07:08:56;19.40;99.90
28438;DHT22;15667;52.376;9.708;2023-07-13T07:11:24;19.60;99.90
28438;DHT22;15667;52.376;9.708;2023-07-13T07:13:51;19.80;99.90
28438;DHT22;15667;52.376;9.708;2023-07-13T07:16:18;20.00;99.90
28438;DHT22;15667;52.376;9.708;2023-07-13T07:18:44;20.70;99.90
28438;DHT22;15667;52.376;9.708;2023-07-13T07:21:10;20.40;99.90
28438;DHT22;15667;52.376;9.708;2023-07-13T07:23:35;21.30;99.90
28438;DHT22;15667;52.376;9.708;2023-07-13T07:26:01;20.00;99.90
28438;DHT22;15667;52.376;9.708;2023-07-13T07:28:27;19.90;99.90
28438;DHT22;15667;52.376;9.708;2023-07-13T07:30:55;19.90;99.90
28438;DHT22;15667;52.376;9.708;2023-07-13T07:33:21;20.10;99.90
28438;DHT22;15667;52.376;9.708;2023-07-13T07:35:47;19.80;99.90
28438;DHT22;15667;52.376;9.708;2023-07-13T07:38:12;19.80;99.90
28438;DHT22;15667;52.376;9.708;2023-07-13T07:40:39;19.80;99.90
28438;DHT22;15667;52.376;9.708;2023-07-13T07:43:10;19.90;99.90
28438;DHT22;15667;52.376;9.708;2023-07-13T07:50:34;19.80;99.90
28438;DHT22;15667;52.376;9.708;2023-07-13T07:53:00;19.70;99.90
28438;DHT22;15667;52.376;9.708;2023-07-13T07:55:27;19.60;99.90
28438;DHT22;15667;52.376;9.708;2023-07-13T07:57:56;19.60;99.90
28438;DHT22;15667;52.376;9.708;2023-07-13T08:03:08;20.10;99.90
28438;DHT22;15667;52.376;9.708;2023-07-13T08:05:35;20.00;99.90
28438;DHT22;15667;52.376;9.708;2023-07-13T08:08:04;20.10;99.90
28438;DHT22;15667;52.376;9.708;2023-07-13T08:10:35;19.50;99.90
28438;DHT22;15667;52.376;9.708;2023-07-13T08:13:04;19.90;99.90
28438;DHT22;15667;52.376;9.708;2023-07-13T08:17:59;20.00;99.90
28438;DHT22;15667;52.376;9.708;2023-07-13T08:20:25;20.00;99.90
28438;DHT22;15667;52.376;9.708;2023-07-13T08:22:52;20.20;99.90
28438;DHT22;15667;52.376;9.708;2023-07-13T08:25:17;20.50;99.90
28438;DHT22;15667;52.376;9.708;2023-07-13T08:27:43;20.50;99.90
28438;DHT22;15667;52.376;9.708;2023-07-13T08:30:09;20.50;99.90
28438;DHT22;15667;52.376;9.708;2023-07-13T08:32:36;20.50;99.90
28438;DHT22;15667;52.376;9.708;2023-07-13T08:35:02;20.70;99.90
28438;DHT22;15667;52.376;9.708;2023-07-13T08:37:31;20.80;99.90
28438;DHT22;15667;52.376;9.708;2023-07-13T08:39:57;20.90;99.90
28438;DHT22;15667;52.376;9.708;2023-07-13T08:42:44;20.60;99.90
28438;DHT22;15667;52.376;9.708;2023-07-13T08:45:22;20.40;99.90
28438;DHT22;15667;52.376;9.708;2023-07-13T08:47:56;20.40;99.90
28438;DHT22;15667;52.376;9.708;2023-07-13T08:50:33;20.50;99.90
28438;DHT22;15667;52.376;9.708;2023-07-13T08:53:04;20.70;99.90
28438;DHT22;15667;52.376;9.708;2023-07-13T08:55:33;20.80;99.90
28438;DHT22;15667;52.376;9.708;2023-07-13T08:58:21;20.90;99.90
28438;DHT22;15667;52.376;9.708;2023-07-13T09:00:52;20.90;99.90
28438;DHT22;15667;52.376;9.708;2023-07-13T09:03:29;22.50;99.90
28438;DHT22;15667;52.376;9.708;2023-07-13T09:05:59;21.20;99.90
28438;DHT22;15667;52.376;9.708;2023-07-13T09:11:30;21.20;99.90
28438;DHT22;15667;52.376;9.708;2023-07-13T09:14:23;21.30;99.90
28438;DHT22;15667;52.376;9.708;2023-07-13T09:16:51;22.30;99.90
28438;DHT22;15667;52.376;9.708;2023-07-13T09:19:24;21.70;99.90
28438;DHT22;15667;52.376;9.708;2023-07-13T09:21:52;21.10;99.90
28438;DHT22;15667;52.376;9.708;2023-07-13T09:27:14;21.00;99.90
28438;DHT22;15667;52.376;9.708;2023-07-13T09:29:47;21.30;99.90
28438;DHT22;15667;52.376;9.708;2023-07-13T09:32:16;21.60;99.90
28438;DHT22;15667;52.376;9.708;2023-07-13T09:34:53;21.60;99.90
28438;DHT22;15667;52.376;9.708;2023-07-13T09:37:27;22.00;99.90
28438;DHT22;15667;52.376;9.708;2023-07-13T09:39:56;22.10;99.90
28438;DHT22;15667;52.376;9.708;2023-07-13T09:42:25;21.90;99.90
28438;DHT22;15667;52.376;9.708;2023-07-13T09:44:59;22.90;99.90
28438;DHT22;15667;52.376;9.708;2023-07-13T09:47:33;21.70;99.90
28438;DHT22;15667;52.376;9.708;2023-07-13T09:50:06;22.30;99.90
28438;DHT22;15667;52.376;9.708;2023-07-13T09:52:46;22.80;99.90
28438;DHT22;15667;52.376;9.708;2023-07-13T09:55:32;22.90;99.90
28438;DHT22;15667;52.376;9.708;2023-07-13T09:58:25;22.50;99.90
28438;DHT22;15667;52.376;9.708;2023-07-13T10:01:03;21.90;99.90
28438;DHT22;15667;52.376;9.708;2023-07-13T10:03:32;21.70;99.90
28438;DHT22;15667;52.376;9.708;2023-07-13T10:06:18;21.60;99.90
28438;DHT22;15667;52.376;9.708;2023-07-13T10:08:45;22.30;99.90
28438;DHT22;15667;52.376;9.708;2023-07-13T10:11:21;23.00;99.90
28438;DHT22;15667;52.376;9.708;2023-07-13T10:13:59;23.30;99.90
28438;DHT22;15667;52.376;9.708;2023-07-13T10:16:28;23.20;99.90
28438;DHT22;15667;52.376;9.708;2023-07-13T10:19:21;23.40;99.90
28438;DHT22;15667;52.376;9.708;2023-07-13T10:21:52;23.40;99.90
28438;DHT22;15667;52.376;9.708;2023-07-13T10:24:25;24.20;99.90
28438;DHT22;15667;52.376;9.708;2023-07-13T10:29:34;23.80;99.90
28438;DHT22;15667;52.376;9.708;2023-07-13T10:34:27;23.50;99.90
28438;DHT22;15667;52.376;9.708;2023-07-13T10:39:22;24.40;99.90
28438;DHT22;15667;52.376;9.708;2023-07-13T10:41:53;24.80;99.90
28438;DHT22;15667;52.376;9.708;2023-07-13T10:44:30;24.30;99.90
28438;DHT22;15667;52.376;9.708;2023-07-13T10:46:58;25.60;99.90
28438;DHT22;15667;52.376;9.708;2023-07-13T10:49:29;25.50;99.90
28438;DHT22;15667;52.376;9.708;2023-07-13T10:51:56;25.20;99.90
28438;DHT22;15667;52.376;9.708;2023-07-13T10:59:43;23.30;99.90
28438;DHT22;15667;52.376;9.708;2023-07-13T11:02:21;23.10;99.90
28438;DHT22;15667;52.376;9.708;2023-07-13T11:04:54;23.80;99.90
28438;DHT22;15667;52.376;9.708;2023-07-13T11:07:31;25.40;99.90
28438;DHT22;15667;52.376;9.708;2023-07-13T11:10:46;25.30;99.90
28438;DHT22;15667;52.376;9.708;2023-07-13T11:13:55;23.90;99.90
28438;DHT22;15667;52.376;9.708;2023-07-13T11:16:35;23.70;99.90
28438;DHT22;15667;52.376;9.708;2023-07-13T11:21:28;23.20;99.90
28438;DHT22;15667;52.376;9.708;2023-07-13T11:24:15;23.50;99.90
28438;DHT22;15667;52.376;9.708;2023-07-13T11:31:59;25.00;99.90
28438;DHT22;15667;52.376;9.708;2023-07-13T11:34:31;25.10;99.90
28438;DHT22;15667;52.376;9.708;2023-07-13T11:36:59;26.10;99.90
28438;DHT22;15667;52.376;9.708;2023-07-13T11:39:35;27.20;99.90
28438;DHT22;15667;52.376;9.708;2023-07-13T11:42:05;27.60;99.90
28438;DHT22;15667;52.376;9.708;2023-07-13T11:44:33;28.50;99.90
28438;DHT22;15667;52.376;9.708;2023-07-13T11:47:14;28.80;99.90
28438;DHT22;15667;52.376;9.708;2023-07-13T11:49:45;28.40;99.90
28438;DHT22;15667;52.376;9.708;2023-07-13T11:52:18;27.80;99.90
28438;DHT22;15667;52.376;9.708;2023-07-13T11:54:53;28.30;99.90
28438;DHT22;15667;52.376;9.708;2023-07-13T11:57:37;29.10;99.90
28438;DHT22;15667;52.376;9.708;2023-07-13T12:00:14;29.40;99.80
28438;DHT22;15667;52.376;9.708;2023-07-13T12:02:46;28.80;98.10
28438;DHT22;15667;52.376;9.708;2023-07-13T12:05:15;27.80;98.60
28438;DHT22;15667;52.376;9.708;2023-07-13T12:07:43;26.70;99.80
28438;DHT22;15667;52.376;9.708;2023-07-13T12:12:58;26.20;99.90
28438;DHT22;15667;52.376;9.708;2023-07-13T12:15:40;25.80;99.90
28438;DHT22;15667;52.376;9.708;2023-07-13T12:18:13;25.80;99.90
28438;DHT22;15667;52.376;9.708;2023-07-13T12:20:39;25.30;99.00
28438;DHT22;15667;52.376;9.708;2023-07-13T12:23:10;27.60;99.40
28438;DHT22;15667;52.376;9.708;2023-07-13T12:25:44;27.90;99.10
28438;DHT22;15667;52.376;9.708;2023-07-13T12:28:33;27.40;99.70
28438;DHT22;15667;52.376;9.708;2023-07-13T12:31:03;27.50;98.80
28438;DHT22;15667;52.376;9.708;2023-07-13T12:33:30;26.70;98.20
28438;DHT22;15667;52.376;9.708;2023-07-13T12:35:58;26.10;98.90
28438;DHT22;15667;52.376;9.708;2023-07-13T12:38:25;25.90;98.60
28438;DHT22;15667;52.376;9.708;2023-07-13T12:40:52;26.60;98.60
28438;DHT22;15667;52.376;9.708;2023-07-13T12:43:20;27.20;97.90
28438;DHT22;15667;52.376;9.708;2023-07-13T12:45:58;28.00;96.00
28438;DHT22;15667;52.376;9.708;2023-07-13T12:48:25;27.40;95.90
28438;DHT22;15667;52.376;9.708;2023-07-13T12:50:54;27.20;96.10
28438;DHT22;15667;52.376;9.708;2023-07-13T12:53:22;26.20;97.00
28438;DHT22;15667;52.376;9.708;2023-07-13T12:55:57;25.20;98.30
28438;DHT22;15667;52.376;9.708;2023-07-13T13:00:59;24.20;99.50
28438;DHT22;15667;52.376;9.708;2023-07-13T13:03:36;23.40;99.90
28438;DHT22;15667;52.376;9.708;2023-07-13T13:06:04;21.20;99.90
28438;DHT22;15667;52.376;9.708;2023-07-13T13:08:36;20.20;99.90
28438;DHT22;15667;52.376;9.708;2023-07-13T13:13:28;18.60;99.90
28438;DHT22;15667;52.376;9.708;2023-07-13T13:15:55;18.40;99.90
28438;DHT22;15667;52.376;9.708;2023-07-13T13:18:23;18.40;99.90
28438;DHT22;15667;52.376;9.708;2023-07-13T13:20:52;18.60;99.90
28438;DHT22;15667;52.376;9.708;2023-07-13T13:23:20;18.40;99.90
28438;DHT22;15667;52.376;9.708;2023-07-13T13:25:49;18.50;99.90
28438;DHT22;15667;52.376;9.708;2023-07-13T13:28:20;18.30;99.90
28438;DHT22;15667;52.376;9.708;2023-07-13T13:30:47;18.70;99.90
28438;DHT22;15667;52.376;9.708;2023-07-13T13:33:15;19.40;99.90
28438;DHT22;15667;52.376;9.708;2023-07-13T13:38:14;18.50;99.90
28438;DHT22;15667;52.376;9.708;2023-07-13T13:40:45;18.50;99.90
28438;DHT22;15667;52.376;9.708;2023-07-13T13:43:31;18.40;99.90
28438;DHT22;15667;52.376;9.708;2023-07-13T13:46:05;18.40;99.90
28438;DHT22;15667;52.376;9.708;2023-07-13T13:48:40;18.10;99.90
28438;DHT22;15667;52.376;9.708;2023-07-13T13:51:26;18.10;99.90
28438;DHT22;15667;52.376;9.708;2023-07-13T13:53:52;17.90;99.90
28438;DHT22;15667;52.376;9.708;2023-07-13T13:56:19;17.60;99.90
28438;DHT22;15667;52.376;9.708;2023-07-13T13:58:46;18.30;99.90
28438;DHT22;15667;52.376;9.708;2023-07-13T14:01:21;18.50;99.90
28438;DHT22;15667;52.376;9.708;2023-07-13T14:03:48;18.60;99.90
28438;DHT22;15667;52.376;9.708;2023-07-13T14:08:43;18.20;99.90
28438;DHT22;15667;52.376;9.708;2023-07-13T14:11:16;18.40;99.90
28438;DHT22;15667;52.376;9.708;2023-07-13T14:13:46;18.30;99.90
28438;DHT22;15667;52.376;9.708;2023-07-13T14:16:17;18.00;99.90
28438;DHT22;15667;52.376;9.708;2023-07-13T14:21:21;18.90;99.90
28438;DHT22;15667;52.376;9.708;2023-07-13T14:23:51;19.70;99.90
28438;DHT22;15667;52.376;9.708;2023-07-13T14:26:24;20.60;99.90
28438;DHT22;15667;52.376;9.708;2023-07-13T14:28:54;20.50;99.90
28438;DHT22;15667;52.376;9.708;2023-07-13T14:36:40;20.00;99.90
28438;DHT22;15667;52.376;9.708;2023-07-13T14:39:16;19.90;99.90
28438;DHT22;15667;52.376;9.708;2023-07-13T14:41:42;19.00;99.90
28438;DHT22;15667;52.376;9.708;2023-07-13T14:44:13;18.90;99.90
28438;DHT22;15667;52.376;9.708;2023-07-13T14:46:49;18.30;99.90
28438;DHT22;15667;52.376;9.708;2023-07-13T14:49:36;18.30;99.90
28438;DHT22;15667;52.376;9.708;2023-07-13T14:52:23;18.10;99.90
28438;DHT22;15667;52.376;9.708;2023-07-13T14:54:49;17.60;99.90
28438;DHT22;15667;52.376;9.708;2023-07-13T14:57:16;17.50;99.90
28438;DHT22;15667;52.376;9.708;2023-07-13T14:59:43;17.40;99.90
28438;DHT22;15667;52.376;9.708;2023-07-13T15:02:31;17.40;99.90
28438;DHT22;15667;52.376;9.708;2023-07-13T15:04:59;17.30;99.90
28438;DHT22;15667;52.376;9.708;2023-07-13T15:07:25;17.00;99.90
28438;DHT22;15667;52.376;9.708;2023-07-13T15:12:17;17.20;99.90
28438;DHT22;15667;52.376;9.708;2023-07-13T15:14:43;16.90;99.90
28438;DHT22;15667;52.376;9.708;2023-07-13T15:17:28;16.40;99.90
28438;DHT22;15667;52.376;9.708;2023-07-13T15:19:57;16.70;99.90
28438;DHT22;15667;52.376;9.708;2023-07-13T15:22:22;16.80;99.90
28438;DHT22;15667;52.376;9.708;2023-07-13T15:24:49;16.40;99.90
28438;DHT22;15667;52.376;9.708;2023-07-13T15:27:15;16.80;99.90
28438;DHT22;15667;52.376;9.708;2023-07-13T15:29:43;16.50;99.90
28438;DHT22;15667;52.376;9.708;2023-07-13T15:32:19;16.60;99.90
28438;DHT22;15667;52.376;9.708;2023-07-13T15:34:44;16.80;99.90
28438;DHT22;15667;52.376;9.708;2023-07-13T15:37:14;16.60;99.90
28438;DHT22;15667;52.376;9.708;2023-07-13T15:42:19;16.60;99.90
28438;DHT22;15667;52.376;9.708;2023-07-13T15:44:45;16.50;99.90
28438;DHT22;15667;52.376;9.708;2023-07-13T15:47:12;17.30;99.90
28438;DHT22;15667;52.376;9.708;2023-07-13T15:49:40;16.60;99.90
28438;DHT22;15667;52.376;9.708;2023-07-13T15:52:20;16.60;99.90
28438;DHT22;15667;52.376;9.708;2023-07-13T15:54:47;16.70;99.90
28438;DHT22;15667;52.376;9.708;2023-07-13T15:57:13;16.50;99.90
28438;DHT22;15667;52.376;9.708;2023-07-13T16:02:19;16.70;99.90
28438;DHT22;15667;52.376;9.708;2023-07-13T16:04:46;17.10;99.90
28438;DHT22;15667;52.376;9.708;2023-07-13T16:07:14;16.80;99.90
28438;DHT22;15667;52.376;9.708;2023-07-13T16:09:43;17.30;99.90
28438;DHT22;15667;52.376;9.708;2023-07-13T16:12:11;17.30;99.90
28438;DHT22;15667;52.376;9.708;2023-07-13T16:14:38;17.00;99.90
28438;DHT22;15667;52.376;9.708;2023-07-13T16:17:05;17.20;99.90
28438;DHT22;15667;52.376;9.708;2023-07-13T16:19:31;17.20;99.90
28438;DHT22;15667;52.376;9.708;2023-07-13T16:21:57;16.90;99.90
28438;DHT22;15667;52.376;9.708;2023-07-13T16:24:25;16.90;99.90
28438;DHT22;15667;52.376;9.708;2023-07-13T16:26:52;16.90;99.90
28438;DHT22;15667;52.376;9.708;2023-07-13T16:29:26;17.00;99.90
28438;DHT22;15667;52.376;9.708;2023-07-13T16:32:12;16.90;99.90
28438;DHT22;15667;52.376;9.708;2023-07-13T16:34:40;16.90;99.90
28438;DHT22;15667;52.376;9.708;2023-07-13T16:37:18;16.90;99.90
28438;DHT22;15667;52.376;9.708;2023-07-13T16:39:50;17.00;99.90
28438;DHT22;15667;52.376;9.708;2023-07-13T16:44:44;17.00;99.90
28438;DHT22;15667;52.376;9.708;2023-07-13T16:47:15;17.00;99.90
28438;DHT22;15667;52.376;9.708;2023-07-13T16:49:41;17.00;99.90
28438;DHT22;15667;52.376;9.708;2023-07-13T16:52:18;17.60;99.90
28438;DHT22;15667;52.376;9.708;2023-07-13T16:54:48;17.20;99.90
28438;DHT22;15667;52.376;9.708;2023-07-13T16:57:20;17.00;99.90
28438;DHT22;15667;52.376;9.708;2023-07-13T16:59:47;17.00;99.90
28438;DHT22;15667;52.376;9.708;2023-07-13T17:02:33;16.90;99.90